createdAt,value
2022-12-01T00:00:55.353Z,84.96
2022-12-01T00:06:00.640Z,83.76
2022-12-01T00:11:06.954Z,83.28
2022-12-01T00:16:13.329Z,83.84
2022-12-01T00:21:16.478Z,84.54
2022-12-01T00:26:19.029Z,84.41
2022-12-01T00:31:20.706Z,84.31
2022-12-01T00:36:22.658Z,84.86
2022-12-01T00:41:25.500Z,84.84
2022-12-01T00:46:26.843Z,83.59
2022-12-01T00:51:28.286Z,83.09
2022-12-01T00:56:29.860Z,83.51
2022-12-01T01:01:31.174Z,83.57
2022-12-01T01:06:32.738Z,83.38
2022-12-01T01:11:34.033Z,84.17
2022-12-01T01:16:35.693Z,83.17
2022-12-01T01:21:37.313Z,83.04
2022-12-01T01:26:38.647Z,83.75
2022-12-01T01:31:40.052Z,83.86
2022-12-01T01:36:41.322Z,83.90
2022-12-01T01:41:42.773Z,84.92
2022-12-01T01:46:44.040Z,84.15
2022-12-01T01:51:50.180Z,84.62
2022-12-01T01:56:52.802Z,83.36
2022-12-01T02:02:05.979Z,82.87
2022-12-01T02:07:08.632Z,83.52
2022-12-01T02:12:19.142Z,83.24
2022-12-01T02:18:08.597Z,82.96
2022-12-01T02:23:35.528Z,81.55
2022-12-01T02:28:48.329Z,82.39
2022-12-01T02:33:56.245Z,81.15
2022-12-01T02:39:17.725Z,81.63
2022-12-01T02:44:27.665Z,81.18
2022-12-01T02:49:34.603Z,80.47
2022-12-01T02:54:37.388Z,79.97
2022-12-01T02:59:42.279Z,80.83
2022-12-01T03:05:02.450Z,80.15
2022-12-01T03:10:19.743Z,81.07
2022-12-01T03:15:32.887Z,80.49
2022-12-01T03:20:43.685Z,80.41
2022-12-01T03:25:48.385Z,80.82
2022-12-01T03:30:54.015Z,80.97
2022-12-01T03:35:59.889Z,80.45
2022-12-01T03:41:08.952Z,80.00
2022-12-01T03:46:32.904Z,80.13
2022-12-01T03:51:46.574Z,80.65
2022-12-01T03:56:59.391Z,80.26
2022-12-01T04:02:00.755Z,80.85
2022-12-01T04:07:02.104Z,80.94
2022-12-01T04:12:22.212Z,80.38
2022-12-01T04:17:24.731Z,81.16
2022-12-01T04:22:26.317Z,81.73
2022-12-01T04:27:27.754Z,80.39
2022-12-01T04:32:29.104Z,80.62
2022-12-01T04:37:30.366Z,79.26
2022-12-01T04:42:31.974Z,79.02
2022-12-01T04:47:33.302Z,78.71
2022-12-01T04:52:37.100Z,78.95
2022-12-01T04:57:39.403Z,78.22
2022-12-01T05:02:43.207Z,77.43
2022-12-01T05:07:45.022Z,77.40
2022-12-01T05:12:46.459Z,76.84
2022-12-01T05:17:47.735Z,76.61
2022-12-01T05:23:05.954Z,76.16
2022-12-01T05:28:07.868Z,76.13
2022-12-01T05:33:09.221Z,75.24
2022-12-01T05:38:10.988Z,75.69
2022-12-01T05:43:12.248Z,76.46
2022-12-01T05:48:13.516Z,75.69
2022-12-01T05:53:15.238Z,76.78
2022-12-01T05:58:16.590Z,76.20
2022-12-01T06:03:17.908Z,76.98
2022-12-01T06:08:19.291Z,77.13
2022-12-01T06:13:20.600Z,76.59
2022-12-01T06:18:21.848Z,77.52
2022-12-01T06:23:27.535Z,77.57
2022-12-01T06:28:30.343Z,77.09
2022-12-01T06:33:32.261Z,76.70
2022-12-01T06:38:35.316Z,77.93
2022-12-01T06:43:40.178Z,77.96
2022-12-01T06:48:42.534Z,77.54
2022-12-01T06:53:43.838Z,76.90
2022-12-01T06:58:45.242Z,76.26
2022-12-01T07:03:48.829Z,77.10
2022-12-01T07:08:50.091Z,74.14
2022-12-01T07:13:55.709Z,73.70
2022-12-01T07:18:57.050Z,73.40
2022-12-01T07:23:58.464Z,72.56
2022-12-01T07:28:59.762Z,73.32
2022-12-01T07:34:01.191Z,72.40
2022-12-01T07:39:07.476Z,72.64
2022-12-01T07:44:11.622Z,73.45
2022-12-01T07:49:15.330Z,71.21
2022-12-01T07:54:17.591Z,71.12
2022-12-01T07:59:18.941Z,71.22
2022-12-01T08:04:20.276Z,70.25
2022-12-01T08:09:21.581Z,70.37
2022-12-01T08:14:22.943Z,70.61
2022-12-01T08:19:25.839Z,71.60
2022-12-01T08:24:27.208Z,71.31
2022-12-01T08:29:28.577Z,71.18
2022-12-01T08:34:29.958Z,70.74
2022-12-01T08:39:31.278Z,71.33
2022-12-01T08:44:32.923Z,71.47
2022-12-01T08:49:34.216Z,70.46
2022-12-01T08:54:35.560Z,70.20
2022-12-01T08:59:37.533Z,70.95
2022-12-01T09:04:38.839Z,69.55
2022-12-01T09:09:40.123Z,69.54
2022-12-01T09:14:47.948Z,70.02
2022-12-01T09:19:49.585Z,70.51
2022-12-01T09:24:51.020Z,69.05
2022-12-01T09:29:52.276Z,68.60
2022-12-01T09:34:53.548Z,67.79
2022-12-01T09:39:55.730Z,68.39
2022-12-01T09:45:00.809Z,68.43
2022-12-01T09:50:05.403Z,66.85
2022-12-01T09:55:12.868Z,67.20
2022-12-01T10:00:18.336Z,67.83
2022-12-01T10:05:26.641Z,67.77
2022-12-01T10:10:32.938Z,67.58
2022-12-01T10:15:49.449Z,67.43
2022-12-01T10:20:54.532Z,66.99
2022-12-01T10:25:59.283Z,66.25
2022-12-01T10:31:06.907Z,59.23
2022-12-01T10:36:10.104Z,57.44
2022-12-01T10:41:14.699Z,58.79
2022-12-01T10:46:22.076Z,60.62
2022-12-01T10:51:24.673Z,62.14
2022-12-01T10:56:26.474Z,63.14
2022-12-01T11:01:34.645Z,63.88
2022-12-01T11:06:37.457Z,63.85
2022-12-01T11:11:40.672Z,64.40
2022-12-01T11:16:44.718Z,64.51
2022-12-01T11:21:57.904Z,64.06
2022-12-01T11:27:00.617Z,63.18
2022-12-01T11:32:26.075Z,62.91
2022-12-01T11:37:38.391Z,62.32
2022-12-01T11:42:41.262Z,61.98
2022-12-01T11:48:20.964Z,61.36
2022-12-01T11:53:31.795Z,61.33
2022-12-01T11:58:33.098Z,61.09
2022-12-01T12:03:48.056Z,60.60
2022-12-01T12:09:18.419Z,60.37
2022-12-01T12:14:38.139Z,60.75
2022-12-01T12:20:07.784Z,60.29
2022-12-01T12:25:25.140Z,59.53
2022-12-01T12:30:30.072Z,58.22
2022-12-01T12:35:47.356Z,54.36
2022-12-01T12:40:57.790Z,47.82
2022-12-01T12:46:38.043Z,38.59
2022-12-01T12:51:44.679Z,33.24
2022-12-01T12:56:51.267Z,30.56
2022-12-01T13:02:04.102Z,32.46
2022-12-01T13:07:13.888Z,30.44
2022-12-01T13:12:30.453Z,27.97
2022-12-01T13:17:38.437Z,29.35
2022-12-01T13:22:40.481Z,35.83
2022-12-01T13:27:44.064Z,40.57
2022-12-01T13:32:46.088Z,44.36
2022-12-01T13:37:47.888Z,46.54
2022-12-01T13:43:08.539Z,48.37
2022-12-01T13:48:47.133Z,49.50
2022-12-01T13:54:05.881Z,50.08
2022-12-01T14:00:02.889Z,51.31
2022-12-01T14:05:22.521Z,52.36
2022-12-01T14:10:27.388Z,53.68
2022-12-01T14:15:40.110Z,54.30
2022-12-01T14:20:46.696Z,56.07
2022-12-01T14:26:10.513Z,57.43
2022-12-01T14:31:12.324Z,58.25
2022-12-01T14:36:22.759Z,59.03
2022-12-01T14:41:28.443Z,59.96
2022-12-01T14:46:38.603Z,60.31
2022-12-01T14:51:44.240Z,60.44
2022-12-01T14:56:47.980Z,60.71
2022-12-01T15:01:52.736Z,61.88
2022-12-01T15:06:57.228Z,61.57
2022-12-01T15:12:01.581Z,62.21
2022-12-01T15:17:05.446Z,61.98
2022-12-01T15:22:17.717Z,62.42
2022-12-01T15:27:31.186Z,62.44
2022-12-01T15:32:37.736Z,62.36
2022-12-01T15:37:44.251Z,62.75
2022-12-01T15:43:00.871Z,63.00
2022-12-01T15:48:15.429Z,63.63
2022-12-01T15:53:24.454Z,63.80
2022-12-01T15:58:32.859Z,63.85
2022-12-01T16:03:51.873Z,65.41
2022-12-01T16:08:56.789Z,65.34
2022-12-01T16:14:01.085Z,65.93
2022-12-01T16:19:24.007Z,66.05
2022-12-01T16:24:35.759Z,66.27
2022-12-01T16:30:19.004Z,66.29
2022-12-01T16:35:24.828Z,66.23
2022-12-01T16:40:26.575Z,66.45
2022-12-01T16:45:28.137Z,66.55
2022-12-01T16:50:29.404Z,66.99
2022-12-01T16:55:58.483Z,67.29
2022-12-01T17:00:59.930Z,67.15
2022-12-01T17:06:03.030Z,67.00
2022-12-01T17:11:06.600Z,67.51
2022-12-01T17:16:15.247Z,67.91
2022-12-01T17:21:19.345Z,67.71
2022-12-01T17:26:21.797Z,67.59
2022-12-01T17:31:23.175Z,67.59
2022-12-01T17:36:24.438Z,67.58
2022-12-01T17:41:32.068Z,67.74
2022-12-01T17:46:33.588Z,68.03
2022-12-01T17:51:36.376Z,68.57
2022-12-01T17:56:37.731Z,68.61
2022-12-01T18:01:41.164Z,68.23
2022-12-01T18:06:42.889Z,68.50
2022-12-01T18:11:44.259Z,68.02
2022-12-01T18:16:45.788Z,68.54
2022-12-01T18:21:47.161Z,68.87
2022-12-01T18:26:48.623Z,68.87
2022-12-01T18:31:49.970Z,69.32
2022-12-01T18:36:51.362Z,69.36
2022-12-01T18:41:52.779Z,69.68
2022-12-01T18:46:54.189Z,69.68
2022-12-01T18:51:55.655Z,69.78
2022-12-01T18:56:58.809Z,69.46
2022-12-01T19:02:00.219Z,69.17
2022-12-01T19:07:01.576Z,69.08
2022-12-01T19:12:02.995Z,69.05
2022-12-01T19:17:04.401Z,69.43
2022-12-01T19:22:05.808Z,69.37
2022-12-01T19:27:07.138Z,69.73
2022-12-01T19:32:08.538Z,70.02
2022-12-01T19:37:10.802Z,70.15
2022-12-01T19:42:12.050Z,69.93
2022-12-01T19:47:15.551Z,70.53
2022-12-01T19:52:20.456Z,69.69
2022-12-01T19:57:21.749Z,69.89
2022-12-01T20:02:28.959Z,70.04
2022-12-01T20:07:30.773Z,69.73
2022-12-01T20:12:33.537Z,69.73
2022-12-01T20:17:36.546Z,70.21
2022-12-01T20:22:38.055Z,70.25
2022-12-01T20:27:39.580Z,69.44
2022-12-01T20:32:40.941Z,69.78
2022-12-01T20:37:42.300Z,69.86
2022-12-01T20:42:43.555Z,69.60
2022-12-01T20:47:44.895Z,70.14
2022-12-01T20:52:46.156Z,69.76
2022-12-01T20:57:47.399Z,69.56
2022-12-01T21:02:49.244Z,69.90
2022-12-01T21:07:50.693Z,69.70
2022-12-01T21:13:18.415Z,69.99
2022-12-01T21:18:24.828Z,69.95
2022-12-01T21:23:27.758Z,70.18
2022-12-01T21:28:29.779Z,70.33
2022-12-01T21:33:33.477Z,70.24
2022-12-01T21:38:34.735Z,70.08
2022-12-01T21:43:38.526Z,70.22
2022-12-01T21:48:40.062Z,69.85
2022-12-01T21:53:41.435Z,69.91
2022-12-01T21:58:43.754Z,69.37
2022-12-01T22:03:46.171Z,68.88
2022-12-01T22:08:50.587Z,69.39
2022-12-01T22:13:51.783Z,69.34
2022-12-01T22:18:55.816Z,69.60
2022-12-01T22:24:09.011Z,69.89
2022-12-01T22:29:35.783Z,69.76
2022-12-01T22:34:37.511Z,69.31
2022-12-01T22:39:40.265Z,69.06
2022-12-01T22:44:44.808Z,69.90
2022-12-01T22:49:46.110Z,69.82
2022-12-01T22:54:50.065Z,69.78
2022-12-01T22:59:52.210Z,69.69
2022-12-01T23:04:58.601Z,70.02
2022-12-01T23:10:17.089Z,70.20
2022-12-01T23:15:37.581Z,69.92
2022-12-01T23:20:40.365Z,70.51
2022-12-01T23:25:43.017Z,70.42
2022-12-01T23:30:47.430Z,70.39
2022-12-01T23:35:57.717Z,70.19
2022-12-01T23:41:01.339Z,70.01
2022-12-01T23:46:07.397Z,70.02
2022-12-01T23:51:25.155Z,70.12
2022-12-01T23:56:28.144Z,69.75
